Time;durP1;ratioP1;P1;durP2;ratioP2;P2;SDS_P1;SDS_P2;PMS_P1;PMS_P2;Temp;Humidity;BMP_temperature;BMP_pressure;BME280_temperature;BME280_humidity;BME280_pressure;Samples;Min_cycle;Max_cycle;Signal;HPM_P1;HPM_P2
2022/08/16 00:01:16;;;;;;;7.55;6.90;;;26.20;76.00;;;;;;5053509;28;20033;-80
2022/08/16 00:03:43;;;;;;;7.63;6.82;;;26.20;75.90;;;;;;5054409;28;20449;-79
2022/08/16 00:06:09;;;;;;;7.88;7.15;;;26.20;75.90;;;;;;5053048;28;20043;-81
2022/08/16 00:08:34;;;;;;;8.50;7.57;;;26.20;76.20;;;;;;5054174;28;20039;-80
2022/08/16 00:11:00;;;;;;;8.38;6.80;;;26.10;76.20;;;;;;5054066;28;20017;-80
2022/08/16 00:13:26;;;;;;;7.50;6.80;;;26.10;76.50;;;;;;5052791;28;20029;-80
2022/08/16 00:15:51;;;;;;;7.85;7.25;;;26.10;76.50;;;;;;5054024;28;20021;-80
2022/08/16 00:18:17;;;;;;;10.88;7.25;;;26.10;76.40;;;;;;5054006;28;20040;-80
2022/08/16 00:20:45;;;;;;;7.72;6.93;;;26.10;76.50;;;;;;5054032;28;20024;-80
2022/08/16 00:23:11;;;;;;;9.05;7.72;;;26.10;76.50;;;;;;5053495;28;20123;-80
2022/08/16 00:25:37;;;;;;;8.75;7.28;;;26.10;76.70;;;;;;5053634;28;20374;-80
2022/08/16 00:28:04;;;;;;;8.20;7.00;;;26.00;76.80;;;;;;5053824;28;20021;-80
2022/08/16 00:30:31;;;;;;;8.82;8.02;;;26.10;76.90;;;;;;5053961;28;20096;-80
2022/08/16 00:32:59;;;;;;;9.52;7.57;;;26.10;76.80;;;;;;5053468;28;20087;-80
2022/08/16 00:35:29;;;;;;;8.25;7.55;;;26.00;76.80;;;;;;5053598;28;20056;-80
2022/08/16 00:37:57;;;;;;;8.38;7.13;;;26.00;77.10;;;;;;5053412;28;20071;-81
2022/08/16 00:40:27;;;;;;;7.78;6.97;;;26.00;76.90;;;;;;5052128;28;20458;-81
2022/08/16 00:42:53;;;;;;;8.73;7.90;;;26.00;76.80;;;;;;5053396;28;20064;-81
2022/08/16 00:45:38;;;;;;;9.43;8.52;;;26.00;76.80;;;;;;5053448;28;20496;-81
2022/08/16 00:48:08;;;;;;;10.32;7.47;;;26.10;77.10;;;;;;5052445;28;20029;-81
2022/08/16 00:50:37;;;;;;;7.93;7.18;;;26.00;76.70;;;;;;5052665;28;20024;-81
2022/08/16 00:53:09;;;;;;;8.98;7.75;;;26.00;76.80;;;;;;5053262;28;20547;-81
2022/08/16 00:55:37;;;;;;;;;;;26.00;76.80;;;;;;5053642;28;20029;-80
2022/08/16 00:58:03;;;;;;;8.32;7.53;;;26.10;76.80;;;;;;5053216;28;20342;-81
2022/08/16 01:00:31;;;;;;;8.07;7.28;;;26.00;76.80;;;;;;5053278;28;20061;-80
2022/08/16 01:03:02;;;;;;;9.63;8.32;;;25.90;76.90;;;;;;5053172;28;20475;-79
2022/08/16 01:05:28;;;;;;;8.73;7.85;;;25.90;77.10;;;;;;5053155;28;20037;-80
2022/08/16 01:07:56;;;;;;;8.50;7.70;;;25.90;77.00;;;;;;5052706;28;20469;-80
2022/08/16 01:10:24;;;;;;;8.68;7.93;;;25.90;77.10;;;;;;5053464;28;20032;-80
2022/08/16 01:12:50;;;;;;;10.48;8.63;;;25.90;77.20;;;;;;5052187;28;20033;-79
2022/08/16 01:15:16;;;;;;;9.00;8.07;;;25.90;77.20;;;;;;5053305;28;20037;-80
2022/08/16 01:17:45;;;;;;;9.20;8.05;;;25.80;77.20;;;;;;5053039;28;20021;-80
2022/08/16 01:20:14;;;;;;;10.68;9.10;;;25.80;77.40;;;;;;5052861;28;20390;-80
2022/08/16 01:23:05;;;;;;;10.85;9.18;;;25.80;77.40;;;;;;5052521;28;20039;-80
2022/08/16 01:25:37;;;;;;;8.73;7.93;;;25.80;77.50;;;;;;5053261;28;20071;-80
2022/08/16 01:28:10;;;;;;;8.90;8.10;;;25.80;77.40;;;;;;5052872;28;20116;-81
2022/08/16 01:30:38;;;;;;;9.38;8.52;;;25.80;77.30;;;;;;5053008;28;20025;-80
2022/08/16 01:33:06;;;;;;;8.93;8.10;;;25.70;77.10;;;;;;5052779;28;20028;-80
2022/08/16 01:35:37;;;;;;;7.40;6.80;;;25.80;77.10;;;;;;5053180;28;20028;-80
2022/08/16 01:38:18;;;;;;;9.02;8.23;;;25.70;76.90;;;;;;5052475;28;20071;-80
2022/08/16 01:40:44;;;;;;;9.05;8.25;;;25.70;77.00;;;;;;5052962;28;20031;-80
2022/08/16 01:43:10;;;;;;;8.40;7.60;;;25.70;76.70;;;;;;5052753;28;20033;-80
2022/08/16 01:45:36;;;;;;;8.05;7.25;;;25.70;76.90;;;;;;5051725;28;20040;-81
2022/08/16 01:48:01;;;;;;;8.98;7.63;;;25.70;76.90;;;;;;5053045;28;20028;-81
2022/08/16 01:50:27;;;;;;;9.30;7.35;;;25.70;76.90;;;;;;5052741;28;20033;-80
2022/08/16 01:52:53;;;;;;;7.70;6.95;;;25.70;76.80;;;;;;5052633;28;20013;-80
2022/08/16 01:55:23;;;;;;;8.90;8.05;;;25.70;76.70;;;;;;5052677;28;20042;-80
2022/08/16 01:57:49;;;;;;;7.80;7.10;;;25.70;76.60;;;;;;5052839;28;20025;-80
2022/08/16 02:00:16;;;;;;;8.05;7.22;;;25.70;76.60;;;;;;5052555;28;20017;-79
2022/08/16 02:02:42;;;;;;;8.00;7.30;;;25.70;76.50;;;;;;5052703;28;20159;-80
2022/08/16 02:05:09;;;;;;;8.73;7.80;;;25.70;76.30;;;;;;5052274;28;20064;-80
2022/08/16 02:07:35;;;;;;;7.40;6.80;;;25.70;76.20;;;;;;5052522;28;20033;-80
2022/08/16 02:10:02;;;;;;;7.28;6.68;;;25.70;76.10;;;;;;5052621;28;20100;-80
2022/08/16 02:12:30;;;;;;;7.70;6.88;;;25.70;76.20;;;;;;5052804;28;20443;-80
2022/08/16 02:14:55;;;;;;;8.68;7.43;;;25.70;76.20;;;;;;5052551;28;20028;-80
2022/08/16 02:17:21;;;;;;;7.80;6.97;;;25.60;76.10;;;;;;5052393;28;20025;-80
2022/08/16 02:19:48;;;;;;;7.75;6.97;;;25.60;76.30;;;;;;5052558;28;20032;-80
2022/08/16 02:22:18;;;;;;;8.30;7.43;;;25.70;76.20;;;;;;5052230;28;20032;-79
2022/08/16 02:24:46;;;;;;;7.05;6.45;;;25.60;76.10;;;;;;5054220;28;20026;-80
2022/08/16 02:27:12;;;;;;;10.13;7.47;;;25.60;76.30;;;;;;5055888;28;20075;-80
2022/08/16 02:29:39;;;;;;;8.80;7.03;;;25.60;76.90;;;;;;5054831;28;20378;-80
2022/08/16 02:32:05;;;;;;;7.30;6.60;;;25.60;77.00;;;;;;5055988;28;20025;-80
2022/08/16 02:34:31;;;;;;;8.85;8.10;;;25.60;76.30;;;;;;5055846;28;20033;-80
2022/08/16 02:36:57;;;;;;;7.00;6.40;;;25.50;76.20;;;;;;5055770;28;20103;-80
2022/08/16 02:39:23;;;;;;;6.88;6.28;;;25.50;76.90;;;;;;5055828;28;20104;-80
2022/08/16 02:41:49;;;;;;;7.10;6.38;;;25.60;76.20;;;;;;5055898;28;20028;-80
2022/08/16 02:44:16;;;;;;;8.98;7.15;;;25.50;76.10;;;;;;5055919;28;20478;-80
2022/08/16 02:46:43;;;;;;;7.43;6.78;;;25.50;76.10;;;;;;5055737;28;20408;-80
2022/08/16 02:49:09;;;;;;;7.90;7.20;;;25.50;76.10;;;;;;5055719;28;20017;-80
2022/08/16 02:51:36;;;;;;;7.70;6.93;;;25.50;76.30;;;;;;5055317;28;20017;-80
2022/08/16 02:54:03;;;;;;;8.35;7.00;;;25.50;76.30;;;;;;5055771;28;20024;-80
2022/08/16 02:56:29;;;;;;;7.80;7.07;;;25.50;76.40;;;;;;5055385;28;20029;-80
2022/08/16 02:58:54;;;;;;;8.40;7.60;;;25.50;76.30;;;;;;5056002;28;20082;-80
2022/08/16 03:01:24;;;;;;;8.55;7.75;;;25.50;76.90;;;;;;5055557;28;20526;-80
2022/08/16 03:03:51;;;;;;;7.07;6.43;;;25.50;76.30;;;;;;5055001;28;20059;-80
2022/08/16 03:06:19;;;;;;;9.05;7.25;;;25.50;76.40;;;;;;5056009;28;20048;-80
2022/08/16 03:08:48;;;;;;;8.13;7.32;;;25.50;76.30;;;;;;5055522;28;20207;-80
2022/08/16 03:11:17;;;;;;;8.73;7.32;;;25.40;76.40;;;;;;5055271;28;20025;-80
2022/08/16 03:13:53;;;;;;;9.40;7.40;;;25.40;76.40;;;;;;5055473;28;20036;-80
2022/08/16 03:16:20;;;;;;;9.18;7.18;;;25.40;76.50;;;;;;5055131;28;20024;-80
2022/08/16 03:18:46;;;;;;;8.32;7.50;;;25.40;76.50;;;;;;5054888;28;20021;-80
2022/08/16 03:21:12;;;;;;;8.07;7.38;;;25.30;76.40;;;;;;5054967;28;20045;-80
2022/08/16 03:23:38;;;;;;;8.15;7.07;;;25.30;76.50;;;;;;5055300;28;20076;-80
2022/08/16 03:26:04;;;;;;;8.48;7.68;;;25.30;76.60;;;;;;5054743;28;20030;-80
2022/08/16 03:28:30;;;;;;;10.57;7.65;;;25.20;76.70;;;;;;5055136;28;20028;-80
2022/08/16 03:30:56;;;;;;;8.93;7.55;;;25.20;76.80;;;;;;5054906;28;20416;-80
2022/08/16 03:33:22;;;;;;;7.90;7.25;;;25.20;76.80;;;;;;5054672;28;20029;-80
2022/08/16 03:35:48;;;;;;;8.90;8.10;;;25.20;76.90;;;;;;5053589;28;20037;-80
2022/08/16 03:38:15;;;;;;;8.57;7.63;;;25.20;77.00;;;;;;5054756;28;20439;-80
2022/08/16 03:40:41;;;;;;;8.95;7.97;;;25.20;76.90;;;;;;5054651;28;20022;-80
2022/08/16 03:43:11;;;;;;;8.95;8.05;;;25.10;76.90;;;;;;5054737;28;20047;-80
2022/08/16 03:45:39;;;;;;;8.50;7.72;;;25.00;77.20;;;;;;5048082;28;20108;-80
2022/08/16 03:48:06;;;;;;;8.45;7.55;;;25.10;77.10;;;;;;5054385;28;20608;-80
2022/08/16 03:50:34;;;;;;;8.88;7.97;;;25.10;77.30;;;;;;5052019;28;20075;-80
2022/08/16 03:52:59;;;;;;;8.23;7.43;;;25.10;77.20;;;;;;5054077;28;20025;-79
2022/08/16 03:55:25;;;;;;;11.68;8.50;;;25.10;77.30;;;;;;5053426;28;20096;-79
2022/08/16 03:57:52;;;;;;;9.30;8.40;;;25.10;77.30;;;;;;5053921;28;20025;-80
2022/08/16 04:00:27;;;;;;;9.32;8.45;;;25.00;77.30;;;;;;5054532;28;20493;-80
2022/08/16 04:02:55;;;;;;;9.65;8.10;;;25.00;77.50;;;;;;5053701;28;20029;-80
2022/08/16 04:05:21;;;;;;;9.65;8.75;;;24.90;77.50;;;;;;5054549;28;20486;-80
2022/08/16 04:07:46;;;;;;;8.80;8.07;;;24.90;77.50;;;;;;5054188;28;20017;-80
2022/08/16 04:10:13;;;;;;;9.50;8.70;;;25.00;77.50;;;;;;5054455;28;20029;-81
2022/08/16 04:12:40;;;;;;;8.30;7.60;;;24.90;77.50;;;;;;5054168;28;20021;-79
2022/08/16 04:15:08;;;;;;;10.23;8.30;;;24.90;77.60;;;;;;5054054;28;20425;-79
2022/08/16 04:17:34;;;;;;;9.32;8.45;;;24.90;77.70;;;;;;5053601;28;20090;-79
2022/08/16 04:20:01;;;;;;;9.85;8.95;;;24.90;77.70;;;;;;5054042;28;20025;-79
2022/08/16 04:22:26;;;;;;;9.50;8.50;;;24.90;77.70;;;;;;5053683;28;20563;-79
2022/08/16 04:24:52;;;;;;;9.25;8.45;;;24.90;77.70;;;;;;5054165;28;20053;-79
2022/08/16 04:27:18;;;;;;;9.20;8.40;;;24.90;77.70;;;;;;5053773;28;20469;-79
2022/08/16 04:29:43;;;;;;;9.90;9.00;;;24.90;77.70;;;;;;5054014;28;20489;-79
2022/08/16 04:32:09;;;;;;;9.68;8.77;;;24.90;77.70;;;;;;5053459;28;20389;-79
2022/08/16 04:34:38;;;;;;;9.93;8.93;;;24.90;77.80;;;;;;5054071;28;20036;-79
2022/08/16 04:37:05;;;;;;;9.88;8.98;;;24.90;77.70;;;;;;5053429;28;20014;-79
2022/08/16 04:39:33;;;;;;;9.93;8.93;;;24.80;77.80;;;;;;5053695;28;20025;-78
2022/08/16 04:41:59;;;;;;;9.95;9.15;;;24.80;77.80;;;;;;5053562;28;20490;-79
2022/08/16 04:44:25;;;;;;;10.88;9.15;;;24.80;77.90;;;;;;5053581;28;20079;-79
2022/08/16 04:46:51;;;;;;;10.65;8.68;;;24.80;78.00;;;;;;5052870;28;20056;-79
2022/08/16 04:49:17;;;;;;;9.43;8.63;;;24.80;78.00;;;;;;5053706;28;20052;-79
2022/08/16 04:51:43;;;;;;;8.95;8.13;;;24.80;77.90;;;;;;5053515;28;20021;-79
2022/08/16 04:54:09;;;;;;;9.63;8.70;;;24.80;78.00;;;;;;5053522;28;20531;-79
2022/08/16 04:56:36;;;;;;;11.38;9.73;;;24.80;78.00;;;;;;5053508;28;20020;-79
2022/08/16 04:59:08;;;;;;;9.20;8.30;;;24.80;78.10;;;;;;5053346;28;20048;-79
2022/08/16 05:01:35;;;;;;;11.97;8.67;;;24.80;78.10;;;;;;5046284;28;20017;-79
2022/08/16 05:04:01;;;;;;;9.13;8.32;;;24.80;78.10;;;;;;5039005;28;20033;-79
2022/08/16 05:06:28;;;;;;;10.25;9.30;;;24.80;78.20;;;;;;5031937;28;20501;-80
2022/08/16 05:08:53;;;;;;;10.00;9.13;;;24.80;78.30;;;;;;5031663;28;20022;-81
2022/08/16 05:11:21;;;;;;;9.57;8.45;;;24.80;78.30;;;;;;5033395;28;20025;-81
2022/08/16 05:14:00;;;;;;;9.07;8.18;;;24.70;78.40;;;;;;5033165;28;20029;-80
2022/08/16 05:19:01;;;;;;;11.90;7.65;;;24.80;78.10;;;;;;5509257;23;20058;-79
2022/08/16 05:21:27;;;;;;;9.15;8.32;;;24.90;78.00;;;;;;5013349;28;20032;-79
2022/08/16 05:23:54;;;;;;;8.73;7.85;;;24.90;78.10;;;;;;5013350;28;20450;-79
2022/08/16 05:26:20;;;;;;;9.43;8.02;;;24.90;78.10;;;;;;5013376;28;20513;-80
2022/08/16 05:28:46;;;;;;;9.70;8.45;;;24.90;78.00;;;;;;5013399;28;20053;-80
2022/08/16 05:31:12;;;;;;;10.88;8.27;;;24.90;77.80;;;;;;5013118;28;20056;-77
2022/08/16 05:33:38;;;;;;;8.65;7.95;;;24.90;78.00;;;;;;5013183;28;20046;-80
2022/08/16 05:36:04;;;;;;;9.07;8.18;;;24.90;78.00;;;;;;5013247;28;20033;-77
2022/08/16 05:38:29;;;;;;;10.70;9.73;;;24.90;77.90;;;;;;5012912;28;20030;-80
2022/08/16 05:40:57;;;;;;;9.88;8.88;;;24.90;78.10;;;;;;5013146;28;20018;-81
2022/08/16 05:43:22;;;;;;;13.52;9.05;;;24.80;78.10;;;;;;5012516;28;20505;-80
2022/08/16 05:45:49;;;;;;;9.98;9.07;;;24.80;78.10;;;;;;5013513;28;20101;-80
2022/08/16 05:48:15;;;;;;;9.35;8.45;;;24.80;78.20;;;;;;5013287;28;20446;-79
2022/08/16 05:50:41;;;;;;;9.32;8.52;;;24.80;78.20;;;;;;5012973;28;20029;-80
2022/08/16 05:53:06;;;;;;;9.35;8.45;;;24.80;78.30;;;;;;5013021;28;20474;-79
2022/08/16 05:55:32;;;;;;;11.48;9.45;;;24.80;78.40;;;;;;5012899;28;20041;-80
2022/08/16 05:57:58;;;;;;;8.88;7.90;;;24.90;78.20;;;;;;5012804;28;20072;-79
2022/08/16 06:00:24;;;;;;;8.77;7.30;;;24.90;78.00;;;;;;5015703;28;20437;-80
2022/08/16 06:02:50;;;;;;;8.52;7.72;;;25.00;77.70;;;;;;5016767;28;20164;-80
2022/08/16 06:05:16;;;;;;;10.98;8.30;;;25.00;77.70;;;;;;5016949;28;20033;-79
2022/08/16 06:07:42;;;;;;;9.98;8.98;;;25.00;77.90;;;;;;5016652;28;20022;-80
2022/08/16 06:10:08;;;;;;;13.52;7.38;;;25.00;77.80;;;;;;4998961;28;20026;-80
2022/08/16 06:12:34;;;;;;;8.38;7.57;;;25.10;77.70;;;;;;5016345;28;20033;-79
2022/08/16 06:15:03;;;;;;;9.35;8.50;;;25.10;77.30;;;;;;5016525;28;20025;-79
2022/08/16 06:17:29;;;;;;;9.35;7.70;;;25.20;77.40;;;;;;5016343;28;20030;-80
2022/08/16 06:19:55;;;;;;;7.90;7.03;;;25.20;77.20;;;;;;5016379;28;20034;-79
2022/08/16 06:22:20;;;;;;;12.35;9.48;;;25.20;77.30;;;;;;5016548;28;20383;-79
2022/08/16 06:24:46;;;;;;;8.82;7.50;;;25.10;77.50;;;;;;5016513;28;20467;-79
2022/08/16 06:27:12;;;;;;;9.48;8.55;;;25.20;77.50;;;;;;5016040;28;20030;-79
2022/08/16 06:29:37;;;;;;;8.57;7.28;;;25.20;77.60;;;;;;5016368;28;20060;-79
2022/08/16 06:32:03;;;;;;;10.90;8.10;;;25.20;77.80;;;;;;5016552;28;20026;-79
2022/08/16 06:34:30;;;;;;;9.68;8.52;;;25.20;77.20;;;;;;5016258;28;20022;-79
2022/08/16 06:36:55;;;;;;;8.50;7.70;;;25.20;77.40;;;;;;5016244;28;20029;-79
2022/08/16 06:39:21;;;;;;;9.60;8.65;;;25.30;77.10;;;;;;4999029;28;20117;-80
2022/08/16 06:41:47;;;;;;;10.65;8.65;;;25.30;77.00;;;;;;5015964;28;20028;-80
2022/08/16 06:44:13;;;;;;;9.63;7.78;;;25.30;77.10;;;;;;5016328;28;20475;-80
2022/08/16 06:46:39;;;;;;;8.50;7.70;;;25.30;77.10;;;;;;5015843;28;20097;-80
2022/08/16 06:49:07;;;;;;;7.43;6.70;;;25.40;77.10;;;;;;5016219;28;20535;-80
2022/08/16 06:51:33;;;;;;;9.10;6.90;;;25.50;76.60;;;;;;5015809;28;20030;-80
2022/08/16 06:53:58;;;;;;;8.75;7.85;;;25.50;76.70;;;;;;5015949;28;20081;-80
2022/08/16 06:56:24;;;;;;;7.57;6.78;;;25.50;76.90;;;;;;4998088;28;20417;-80
2022/08/16 06:58:51;;;;;;;9.43;7.53;;;25.60;76.20;;;;;;5015913;28;20026;-80
2022/08/16 07:01:17;;;;;;;7.40;6.50;;;25.60;76.20;;;;;;5015759;28;20026;-80
2022/08/16 07:03:43;;;;;;;8.00;6.45;;;25.60;76.00;;;;;;5015827;28;20053;-80
2022/08/16 07:06:10;;;;;;;8.60;7.13;;;25.70;76.00;;;;;;5015686;28;20172;-80
2022/08/16 07:08:36;;;;;;;7.13;6.43;;;25.70;75.70;;;;;;5015619;28;20467;-80
2022/08/16 07:11:02;;;;;;;8.52;6.57;;;25.70;75.50;;;;;;5015358;28;20018;-80
2022/08/16 07:13:29;;;;;;;7.88;7.03;;;25.70;75.60;;;;;;5015740;28;20463;-80
2022/08/16 07:15:58;;;;;;;7.35;6.63;;;25.70;75.60;;;;;;5015491;28;20407;-80
2022/08/16 07:18:24;;;;;;;8.40;7.28;;;25.70;75.60;;;;;;5015422;28;20038;-80
2022/08/16 07:20:50;;;;;;;5.65;5.10;;;25.80;75.50;;;;;;5015415;28;20030;-80
2022/08/16 07:23:16;;;;;;;10.55;7.97;;;25.80;75.00;;;;;;5015700;28;20033;-80
2022/08/16 07:25:42;;;;;;;9.07;6.55;;;25.80;75.40;;;;;;5014931;28;20026;-80
2022/08/16 07:28:11;;;;;;;9.93;8.18;;;25.90;76.00;;;;;;5015405;28;20030;-80
2022/08/16 07:30:38;;;;;;;7.03;6.13;;;25.90;75.20;;;;;;5015163;28;20026;-80
2022/08/16 07:33:04;;;;;;;7.65;6.50;;;25.90;74.90;;;;;;5015280;28;20430;-80
2022/08/16 07:35:31;;;;;;;12.07;8.60;;;26.00;74.80;;;;;;5015072;28;20029;-80
2022/08/16 07:37:57;;;;;;;11.45;7.18;;;26.00;74.80;;;;;;5015018;28;20475;-80
2022/08/16 07:40:24;;;;;;;8.57;7.55;;;26.00;74.80;;;;;;5014962;28;20053;-80
2022/08/16 07:42:49;;;;;;;9.65;7.72;;;26.00;74.60;;;;;;5015455;28;20050;-80
2022/08/16 07:45:15;;;;;;;10.13;7.47;;;26.10;74.90;;;;;;5015195;28;20067;-80
2022/08/16 07:47:42;;;;;;;8.48;6.78;;;26.10;74.80;;;;;;5014707;28;20026;-79
2022/08/16 07:50:09;;;;;;;7.40;6.43;;;26.10;75.20;;;;;;5014776;28;20112;-79
2022/08/16 07:52:35;;;;;;;5.50;4.90;;;26.20;74.90;;;;;;5015051;28;20018;-80
2022/08/16 07:55:00;;;;;;;8.23;6.40;;;26.20;74.10;;;;;;5014620;28;20033;-80
2022/08/16 07:57:26;;;;;;;8.27;6.88;;;26.20;74.20;;;;;;5014620;28;20061;-80
2022/08/16 07:59:52;;;;;;;9.05;6.20;;;26.20;74.30;;;;;;5014678;28;20034;-80
2022/08/16 08:02:18;;;;;;;7.88;6.63;;;26.20;74.00;;;;;;5014668;28;20109;-80
2022/08/16 08:04:43;;;;;;;7.68;6.95;;;26.20;73.80;;;;;;5014549;28;20034;-80
2022/08/16 08:07:11;;;;;;;9.10;6.50;;;26.20;73.80;;;;;;5014640;28;20044;-80
2022/08/16 08:09:37;;;;;;;7.93;5.78;;;26.30;74.10;;;;;;5013958;28;20510;-80
2022/08/16 08:12:03;;;;;;;8.40;6.13;;;26.30;74.00;;;;;;5014529;28;20033;-80
2022/08/16 08:14:31;;;;;;;7.28;6.40;;;26.30;74.00;;;;;;5014646;28;20018;-80
2022/08/16 08:16:57;;;;;;;7.50;6.30;;;26.40;74.20;;;;;;5014288;28;20489;-80
2022/08/16 08:19:24;;;;;;;7.10;6.00;;;26.40;74.70;;;;;;5014297;28;20045;-80
2022/08/16 08:21:52;;;;;;;8.15;6.35;;;26.40;73.70;;;;;;5013791;28;20394;-80
2022/08/16 08:24:19;;;;;;;10.02;6.63;;;26.40;73.80;;;;;;5014207;28;20038;-80
2022/08/16 08:26:44;;;;;;;6.68;5.93;;;26.50;73.60;;;;;;5014163;28;20041;-80
2022/08/16 08:29:10;;;;;;;7.30;5.38;;;26.50;73.50;;;;;;5014392;28;20095;-80
2022/08/16 08:31:36;;;;;;;9.63;6.70;;;26.50;73.30;;;;;;4996403;28;20113;-80
2022/08/16 08:34:06;;;;;;;9.23;6.75;;;26.50;73.50;;;;;;5014066;28;20033;-80
2022/08/16 08:36:37;;;;;;;6.35;5.25;;;26.50;73.80;;;;;;5014412;28;20101;-80
2022/08/16 08:39:04;;;;;;;6.25;5.25;;;26.50;73.60;;;;;;5013811;28;20054;-80
2022/08/16 08:41:30;;;;;;;6.43;5.68;;;26.60;73.00;;;;;;5014025;28;20109;-80
2022/08/16 08:43:56;;;;;;;7.05;6.00;;;26.60;73.10;;;;;;5013903;28;20144;-80
2022/08/16 08:46:24;;;;;;;8.63;6.20;;;26.60;73.60;;;;;;5013875;28;20025;-80
2022/08/16 08:48:51;;;;;;;6.85;5.05;;;26.60;73.60;;;;;;5013926;28;20076;-80
2022/08/16 08:51:17;;;;;;;5.35;4.88;;;26.60;73.10;;;;;;5013987;28;20101;-80
2022/08/16 08:53:44;;;;;;;6.95;4.90;;;26.60;73.20;;;;;;5013530;28;20475;-80
2022/08/16 08:56:11;;;;;;;6.25;4.80;;;26.60;73.00;;;;;;5013721;28;20037;-80
2022/08/16 08:58:37;;;;;;;5.85;4.53;;;26.60;73.10;;;;;;5013767;28;20025;-80
2022/08/16 09:01:06;;;;;;;8.75;4.97;;;26.60;72.60;;;;;;5013681;28;20083;-80
2022/08/16 09:03:33;;;;;;;5.28;3.85;;;26.60;72.50;;;;;;5013658;28;20168;-80
2022/08/16 09:06:00;;;;;;;5.32;4.53;;;26.70;72.10;;;;;;5013853;28;20033;-80
2022/08/16 09:08:27;;;;;;;4.47;4.07;;;26.70;72.00;;;;;;5013333;28;20096;-80
2022/08/16 09:10:57;;;;;;;6.40;4.45;;;26.70;71.90;;;;;;5013670;28;20026;-79
2022/08/16 09:13:23;;;;;;;6.13;4.30;;;26.70;71.90;;;;;;5013492;28;20054;-80
2022/08/16 09:15:51;;;;;;;6.22;4.63;;;26.70;71.80;;;;;;5013495;28;20345;-80
2022/08/16 09:18:16;;;;;;;3.83;3.45;;;26.70;71.90;;;;;;5013333;28;20037;-80
2022/08/16 09:20:43;;;;;;;5.72;3.90;;;26.80;71.70;;;;;;5013435;28;20018;-80
2022/08/16 09:23:10;;;;;;;4.53;3.80;;;26.70;71.30;;;;;;5012962;28;20121;-80
2022/08/16 09:25:36;;;;;;;4.63;4.13;;;26.80;70.70;;;;;;5013554;28;20033;-80
2022/08/16 09:28:02;;;;;;;4.13;3.50;;;26.80;70.70;;;;;;5013810;28;20030;-80
2022/08/16 09:30:28;;;;;;;4.07;3.78;;;26.80;71.10;;;;;;5013310;28;20030;-80
2022/08/16 09:32:54;;;;;;;3.80;3.47;;;26.80;71.10;;;;;;5013268;28;20105;-80
2022/08/16 09:35:23;;;;;;;4.88;4.28;;;26.80;71.00;;;;;;5016601;28;20049;-80
2022/08/16 09:37:48;;;;;;;4.00;3.60;;;26.80;70.80;;;;;;5017460;28;20097;-80
2022/08/16 09:40:14;;;;;;;4.28;3.78;;;26.80;70.60;;;;;;5017278;28;20053;-80
2022/08/16 09:42:40;;;;;;;4.60;4.07;;;26.80;71.50;;;;;;5017333;28;20038;-80
2022/08/16 09:45:07;;;;;;;4.57;4.05;;;26.80;70.90;;;;;;5017071;28;20053;-80
2022/08/16 09:47:39;;;;;;;4.00;3.70;;;26.80;70.80;;;;;;5017246;28;20064;-80
2022/08/16 09:50:07;;;;;;;4.85;4.07;;;26.80;70.70;;;;;;5016739;28;20121;-80
2022/08/16 09:52:34;;;;;;;4.43;3.67;;;26.80;70.60;;;;;;5017212;28;20061;-80
2022/08/16 09:55:02;;;;;;;4.20;3.70;;;26.80;70.70;;;;;;5016976;28;20061;-80
2022/08/16 09:57:28;;;;;;;4.18;3.78;;;26.90;70.30;;;;;;5017151;28;20033;-80
2022/08/16 09:59:53;;;;;;;4.15;3.72;;;26.90;70.40;;;;;;5016926;28;20029;-79
2022/08/16 10:02:19;;;;;;;3.75;3.40;;;26.90;70.30;;;;;;5016994;28;20022;-79
2022/08/16 10:04:44;;;;;;;3.45;3.15;;;26.90;70.30;;;;;;5016601;28;20057;-79
2022/08/16 10:07:10;;;;;;;4.47;3.55;;;26.90;69.70;;;;;;5016861;28;20034;-81
2022/08/16 10:09:35;;;;;;;4.20;3.47;;;26.90;70.00;;;;;;5016775;28;20022;-80
2022/08/16 10:14:45;;;;;;;3.95;3.58;;;27.00;69.90;;;;;;5016659;28;20482;-79
2022/08/16 10:17:11;;;;;;;3.58;3.28;;;27.00;70.00;;;;;;5016795;28;20026;-79
2022/08/16 10:19:37;;;;;;;3.72;3.08;;;26.90;69.70;;;;;;5016167;28;20537;-79
2022/08/16 10:22:02;;;;;;;5.25;2.97;;;26.90;69.20;;;;;;5016198;28;20190;-79
2022/08/16 10:24:28;;;;;;;3.40;2.88;;;27.00;69.20;;;;;;5016582;28;20165;-79
2022/08/16 10:26:56;;;;;;;5.15;3.45;;;27.00;69.30;;;;;;5016407;28;20022;-79
2022/08/16 10:29:22;;;;;;;3.30;3.00;;;27.00;69.40;;;;;;5016451;28;20021;-80
2022/08/16 10:31:48;;;;;;;4.00;3.10;;;27.00;69.00;;;;;;5016468;28;20025;-80
2022/08/16 10:34:14;;;;;;;3.42;2.90;;;27.00;68.90;;;;;;5016125;28;20398;-80
2022/08/16 10:36:39;;;;;;;3.50;3.20;;;27.00;69.20;;;;;;5016304;28;20030;-80
2022/08/16 10:39:05;;;;;;;3.45;3.05;;;27.10;69.40;;;;;;5016538;28;20080;-80
2022/08/16 10:41:31;;;;;;;3.33;3.03;;;27.10;69.40;;;;;;5016164;28;20026;-79
2022/08/16 10:43:58;;;;;;;3.20;2.90;;;27.10;69.20;;;;;;5016246;28;20529;-79
2022/08/16 10:46:23;;;;;;;4.07;3.30;;;27.10;68.70;;;;;;5015579;28;20050;-79
2022/08/16 10:48:49;;;;;;;3.75;3.45;;;27.10;68.80;;;;;;5016063;28;20400;-79
2022/08/16 10:51:15;;;;;;;3.10;2.83;;;27.10;68.90;;;;;;5015881;28;20026;-79
2022/08/16 10:53:41;;;;;;;3.30;3.00;;;27.10;68.80;;;;;;5016202;28;20033;-80
2022/08/16 10:56:11;;;;;;;4.05;2.80;;;27.10;68.50;;;;;;5015828;28;20022;-80
2022/08/16 10:58:39;;;;;;;3.30;3.00;;;27.10;68.40;;;;;;5016018;28;20026;-81
2022/08/16 11:01:07;;;;;;;3.58;3.22;;;27.20;68.60;;;;;;5015585;28;20037;-80
2022/08/16 11:03:34;;;;;;;3.63;3.05;;;27.20;68.50;;;;;;5015599;28;20520;-80
2022/08/16 11:06:00;;;;;;;3.00;2.70;;;27.20;68.50;;;;;;5015583;28;20033;-81
2022/08/16 11:08:26;;;;;;;3.40;3.00;;;27.20;68.30;;;;;;5015593;28;20022;-80
2022/08/16 11:10:52;;;;;;;3.20;2.65;;;27.20;68.30;;;;;;5015440;28;20025;-81
2022/08/16 11:13:20;;;;;;;2.97;2.67;;;27.20;68.30;;;;;;5016140;28;20050;-80
2022/08/16 11:15:46;;;;;;;4.28;3.00;;;27.20;68.30;;;;;;5015434;28;20025;-81
2022/08/16 11:18:12;;;;;;;4.82;2.78;;;27.20;68.40;;;;;;5015269;28;20387;-79
2022/08/16 11:20:40;;;;;;;3.13;2.70;;;27.20;68.20;;;;;;5015383;28;20030;-79
2022/08/16 11:23:05;;;;;;;4.95;3.05;;;27.20;68.00;;;;;;5015541;28;20037;-79
2022/08/16 11:25:32;;;;;;;2.88;2.67;;;27.20;68.80;;;;;;5015692;28;20022;-79
2022/08/16 11:27:59;;;;;;;2.97;2.72;;;27.30;68.30;;;;;;5015295;28;20024;-79
2022/08/16 11:30:27;;;;;;;3.00;2.80;;;27.20;68.00;;;;;;5015281;28;20037;-79
2022/08/16 11:32:52;;;;;;;4.18;2.83;;;27.30;68.00;;;;;;5014887;28;20038;-79
2022/08/16 11:35:22;;;;;;;2.67;2.47;;;27.20;68.10;;;;;;5015191;28;20060;-78
2022/08/16 11:38:09;;;;;;;3.63;2.92;;;27.30;68.10;;;;;;5015030;28;20084;-79
2022/08/16 11:40:49;;;;;;;4.05;2.47;;;27.20;68.10;;;;;;5015124;28;20097;-79
2022/08/16 11:43:20;;;;;;;3.28;2.53;;;27.30;68.00;;;;;;5014765;28;20030;-79
2022/08/16 11:45:47;;;;;;;3.43;2.80;;;27.30;67.90;;;;;;5015184;28;20352;-79
2022/08/16 11:48:13;;;;;;;3.70;2.83;;;27.30;67.80;;;;;;5014867;28;20307;-79
2022/08/16 11:50:40;;;;;;;2.88;2.60;;;27.30;67.70;;;;;;5014867;28;20514;-79
2022/08/16 11:53:07;;;;;;;3.25;2.58;;;27.30;67.60;;;;;;5014856;28;20025;-79
2022/08/16 11:55:34;;;;;;;2.55;2.35;;;27.40;67.70;;;;;;5014894;28;20030;-79
2022/08/16 11:58:01;;;;;;;3.45;2.60;;;27.30;67.60;;;;;;5013626;28;20081;-79
2022/08/16 12:00:28;;;;;;;3.58;2.75;;;27.40;67.60;;;;;;4996892;28;20485;-79
2022/08/16 12:02:54;;;;;;;3.58;2.65;;;27.30;67.50;;;;;;5014631;28;20092;-79
2022/08/16 12:05:21;;;;;;;2.95;2.42;;;27.40;67.40;;;;;;4997144;28;20459;-79
2022/08/16 12:07:47;;;;;;;2.88;2.58;;;27.40;67.40;;;;;;5014361;28;20021;-79
2022/08/16 12:10:17;;;;;;;2.78;2.22;;;27.40;67.40;;;;;;5014573;28;20021;-79
2022/08/16 12:12:45;;;;;;;3.00;2.70;;;27.40;67.40;;;;;;5014442;28;20526;-79
2022/08/16 12:15:12;;;;;;;2.80;2.60;;;27.40;67.40;;;;;;5014298;28;20100;-79
2022/08/16 12:17:39;;;;;;;3.00;2.20;;;27.40;68.10;;;;;;5014395;28;20113;-79
2022/08/16 12:20:17;;;;;;;4.47;2.45;;;27.40;67.30;;;;;;5014275;28;20092;-79
2022/08/16 12:22:43;;;;;;;3.05;2.75;;;27.40;67.20;;;;;;5014168;28;20561;-79
2022/08/16 12:25:13;;;;;;;3.80;2.67;;;27.40;67.10;;;;;;5014303;28;20391;-78
2022/08/16 12:27:39;;;;;;;2.47;2.28;;;27.40;67.10;;;;;;5014405;28;20018;-79
2022/08/16 12:30:07;;;;;;;2.83;2.20;;;27.40;67.10;;;;;;5013873;28;20105;-80
2022/08/16 12:32:33;;;;;;;3.00;2.22;;;27.40;67.00;;;;;;5014003;28;20022;-80
2022/08/16 12:34:58;;;;;;;3.45;2.60;;;27.50;67.00;;;;;;5014175;28;20056;-80
2022/08/16 12:37:24;;;;;;;2.95;2.75;;;27.50;66.80;;;;;;5014136;28;20022;-80
2022/08/16 12:39:53;;;;;;;3.88;2.58;;;27.50;66.90;;;;;;5014081;28;20080;-80
2022/08/16 12:42:21;;;;;;;3.38;2.55;;;27.50;67.60;;;;;;5013982;28;20018;-80
2022/08/16 12:44:47;;;;;;;2.78;2.50;;;27.50;66.90;;;;;;5013898;28;20092;-80
2022/08/16 12:49:59;;;;;;;2.75;2.40;;;27.50;66.70;;;;;;5013733;28;20050;-79
2022/08/16 12:52:26;;;;;;;3.72;2.50;;;27.50;66.80;;;;;;5013628;28;20105;-80